CheckWX is a tool to help pilots better visualize weather data.  It is not intended as a substitute for an official pre-flight weather briefing.

21:23:01 UTC

KSEM METAR
Craig Field Airport
Selma, Alabama, USA
Current

28 mins ago

KSEM 232055Z AUTO 18015KT 10SM 26/19 A2991 RMK AO2
Observed
Feb-23 @ 20:55 UTC
Wind
  • 180° at 15 KTS
Visibility
10 SM
Temperature
26°C / 79°F
Dewpoint
19°C / 66°F
Humidity
65%
Altimeter
29.91" Hg
Pressure
1012.92 hPa
Previous

48 mins ago

KSEM 232035Z AUTO 18011G19KT 10SM 25/19 A2992 RMK AO2
Observed
Feb-23 @ 20:35 UTC
Wind
  • 180° at 11 KTS
  • Gusting to 19 KTS
Visibility
10 SM
Temperature
25°C / 77°F
Dewpoint
19°C / 66°F
Humidity
69%
Altimeter
29.92" Hg
Pressure
1013.22 hPa
Previous

1 hour ago

KSEM 232015Z AUTO 19011G18KT 6SM -DZ 26/19 A2993 RMK AO2
Observed
Feb-23 @ 20:15 UTC
Wind
  • 190° at 11 KTS
  • Gusting to 18 KTS
Visibility
6 SM
Conditions
Light Drizzle
Temperature
26°C / 79°F
Dewpoint
19°C / 66°F
Humidity
65%
Altimeter
29.93" Hg
Pressure
1013.52 hPa